sensor_id;sensor_type;location;lat;lon;timestamp;pressure;altitude;pressure_sealevel;temperature
15607;BMP180;7865;50.918;4.510;2022-08-30T00:03:51;101457.00;;;16.90
15607;BMP180;7865;50.918;4.510;2022-08-30T00:08:55;101474.00;;;17.00
15607;BMP180;7865;50.918;4.510;2022-08-30T00:13:57;101466.00;;;17.00
15607;BMP180;7865;50.918;4.510;2022-08-30T00:18:59;101474.00;;;17.00
15607;BMP180;7865;50.918;4.510;2022-08-30T00:24:01;101472.00;;;17.00
15607;BMP180;7865;50.918;4.510;2022-08-30T00:29:03;101478.00;;;17.00
15607;BMP180;7865;50.918;4.510;2022-08-30T00:34:04;101477.00;;;17.00
15607;BMP180;7865;50.918;4.510;2022-08-30T00:39:05;101476.00;;;17.00
15607;BMP180;7865;50.918;4.510;2022-08-30T00:44:06;101471.00;;;16.90
15607;BMP180;7865;50.918;4.510;2022-08-30T00:49:10;101468.00;;;16.90
15607;BMP180;7865;50.918;4.510;2022-08-30T00:54:13;101473.00;;;16.80
15607;BMP180;7865;50.918;4.510;2022-08-30T00:59:14;101476.00;;;16.80
15607;BMP180;7865;50.918;4.510;2022-08-30T01:04:16;101472.00;;;16.80
15607;BMP180;7865;50.918;4.510;2022-08-30T01:09:20;101465.00;;;16.80
15607;BMP180;7865;50.918;4.510;2022-08-30T01:14:22;101470.00;;;16.80
15607;BMP180;7865;50.918;4.510;2022-08-30T01:19:52;101472.00;;;16.70
15607;BMP180;7865;50.918;4.510;2022-08-30T01:24:56;101465.00;;;16.60
15607;BMP180;7865;50.918;4.510;2022-08-30T01:29:58;101467.00;;;16.50
15607;BMP180;7865;50.918;4.510;2022-08-30T01:34:59;101472.00;;;16.50
15607;BMP180;7865;50.918;4.510;2022-08-30T01:40:01;101472.00;;;16.50
15607;BMP180;7865;50.918;4.510;2022-08-30T01:45:06;101473.00;;;16.60
15607;BMP180;7865;50.918;4.510;2022-08-30T01:50:09;101473.00;;;16.60
15607;BMP180;7865;50.918;4.510;2022-08-30T01:55:11;101462.00;;;16.60
15607;BMP180;7865;50.918;4.510;2022-08-30T02:00:12;101468.00;;;16.50
15607;BMP180;7865;50.918;4.510;2022-08-30T02:05:14;101458.00;;;16.40
15607;BMP180;7865;50.918;4.510;2022-08-30T02:10:16;101464.00;;;16.20
15607;BMP180;7865;50.918;4.510;2022-08-30T02:15:17;101456.00;;;16.10
15607;BMP180;7865;50.918;4.510;2022-08-30T02:20:19;101448.00;;;16.00
15607;BMP180;7865;50.918;4.510;2022-08-30T02:25:20;101454.00;;;15.90
15607;BMP180;7865;50.918;4.510;2022-08-30T02:30:22;101447.00;;;15.80
15607;BMP180;7865;50.918;4.510;2022-08-30T02:35:24;101450.00;;;15.70
15607;BMP180;7865;50.918;4.510;2022-08-30T02:40:25;101445.00;;;15.60
15607;BMP180;7865;50.918;4.510;2022-08-30T02:45:27;101441.00;;;15.50
15607;BMP180;7865;50.918;4.510;2022-08-30T02:50:28;101435.00;;;15.40
15607;BMP180;7865;50.918;4.510;2022-08-30T02:55:31;101436.00;;;15.30
15607;BMP180;7865;50.918;4.510;2022-08-30T03:00:33;101428.00;;;15.30
15607;BMP180;7865;50.918;4.510;2022-08-30T03:05:34;101429.00;;;15.20
15607;BMP180;7865;50.918;4.510;2022-08-30T03:10:38;101436.00;;;15.10
15607;BMP180;7865;50.918;4.510;2022-08-30T03:15:40;101438.00;;;15.00
15607;BMP180;7865;50.918;4.510;2022-08-30T03:20:42;101432.00;;;14.90
15607;BMP180;7865;50.918;4.510;2022-08-30T03:25:48;101434.00;;;14.90
15607;BMP180;7865;50.918;4.510;2022-08-30T03:30:50;101446.00;;;14.80
15607;BMP180;7865;50.918;4.510;2022-08-30T03:35:51;101447.00;;;14.80
15607;BMP180;7865;50.918;4.510;2022-08-30T03:40:52;101444.00;;;14.80
15607;BMP180;7865;50.918;4.510;2022-08-30T03:45:54;101442.00;;;14.90
15607;BMP180;7865;50.918;4.510;2022-08-30T03:50:55;101439.00;;;15.00
15607;BMP180;7865;50.918;4.510;2022-08-30T03:55:57;101434.00;;;15.00
15607;BMP180;7865;50.918;4.510;2022-08-30T04:00:59;101437.00;;;14.90
15607;BMP180;7865;50.918;4.510;2022-08-30T04:06:00;101440.00;;;14.90
15607;BMP180;7865;50.918;4.510;2022-08-30T04:11:01;101440.00;;;14.90
15607;BMP180;7865;50.918;4.510;2022-08-30T04:16:05;101442.00;;;14.90
15607;BMP180;7865;50.918;4.510;2022-08-30T04:21:07;101443.00;;;14.90
15607;BMP180;7865;50.918;4.510;2022-08-30T04:26:14;101443.00;;;14.90
15607;BMP180;7865;50.918;4.510;2022-08-30T04:31:16;101448.00;;;14.90
15607;BMP180;7865;50.918;4.510;2022-08-30T04:36:19;101451.00;;;14.90
15607;BMP180;7865;50.918;4.510;2022-08-30T04:41:20;101449.00;;;15.00
15607;BMP180;7865;50.918;4.510;2022-08-30T04:46:24;101457.00;;;15.00
15607;BMP180;7865;50.918;4.510;2022-08-30T04:51:25;101458.00;;;14.90
15607;BMP180;7865;50.918;4.510;2022-08-30T04:56:26;101461.00;;;14.90
15607;BMP180;7865;50.918;4.510;2022-08-30T05:01:31;101465.00;;;15.00
15607;BMP180;7865;50.918;4.510;2022-08-30T05:06:45;101467.00;;;15.00
15607;BMP180;7865;50.918;4.510;2022-08-30T05:11:46;101472.00;;;15.00
15607;BMP180;7865;50.918;4.510;2022-08-30T05:16:48;101478.00;;;15.00
15607;BMP180;7865;50.918;4.510;2022-08-30T05:21:49;101485.00;;;15.10
15607;BMP180;7865;50.918;4.510;2022-08-30T05:26:50;101477.00;;;15.20
15607;BMP180;7865;50.918;4.510;2022-08-30T05:31:52;101487.00;;;15.30
15607;BMP180;7865;50.918;4.510;2022-08-30T05:36:53;101482.00;;;15.50
15607;BMP180;7865;50.918;4.510;2022-08-30T05:41:58;101487.00;;;15.90
15607;BMP180;7865;50.918;4.510;2022-08-30T05:47:00;101484.00;;;16.30
15607;BMP180;7865;50.918;4.510;2022-08-30T05:52:03;101476.00;;;16.70
15607;BMP180;7865;50.918;4.510;2022-08-30T05:57:04;101463.00;;;17.00
15607;BMP180;7865;50.918;4.510;2022-08-30T06:02:05;101465.00;;;17.30
15607;BMP180;7865;50.918;4.510;2022-08-30T06:07:07;101477.00;;;17.70
15607;BMP180;7865;50.918;4.510;2022-08-30T06:12:13;101466.00;;;18.00
15607;BMP180;7865;50.918;4.510;2022-08-30T06:17:14;101471.00;;;18.10
15607;BMP180;7865;50.918;4.510;2022-08-30T06:22:15;101470.00;;;18.30
15607;BMP180;7865;50.918;4.510;2022-08-30T06:27:17;101469.00;;;18.60
15607;BMP180;7865;50.918;4.510;2022-08-30T06:32:18;101466.00;;;18.60
15607;BMP180;7865;50.918;4.510;2022-08-30T06:37:19;101467.00;;;18.70
15607;BMP180;7865;50.918;4.510;2022-08-30T06:42:31;101462.00;;;18.90
15607;BMP180;7865;50.918;4.510;2022-08-30T06:47:33;101466.00;;;19.10
15607;BMP180;7865;50.918;4.510;2022-08-30T06:52:34;101468.00;;;19.30
15607;BMP180;7865;50.918;4.510;2022-08-30T06:57:36;101472.00;;;19.50
15607;BMP180;7865;50.918;4.510;2022-08-30T07:02:38;101479.00;;;19.70
15607;BMP180;7865;50.918;4.510;2022-08-30T07:07:39;101475.00;;;20.00
15607;BMP180;7865;50.918;4.510;2022-08-30T07:12:41;101473.00;;;20.20
15607;BMP180;7865;50.918;4.510;2022-08-30T07:17:42;101460.00;;;20.40
15607;BMP180;7865;50.918;4.510;2022-08-30T07:23:02;101457.00;;;20.60
15607;BMP180;7865;50.918;4.510;2022-08-30T07:28:04;101469.00;;;21.00
15607;BMP180;7865;50.918;4.510;2022-08-30T07:33:06;101461.00;;;21.50
15607;BMP180;7865;50.918;4.510;2022-08-30T07:38:12;101466.00;;;21.70
15607;BMP180;7865;50.918;4.510;2022-08-30T07:43:14;101456.00;;;21.80
15607;BMP180;7865;50.918;4.510;2022-08-30T07:48:15;101469.00;;;22.10
15607;BMP180;7865;50.918;4.510;2022-08-30T07:53:16;101466.00;;;22.50
15607;BMP180;7865;50.918;4.510;2022-08-30T07:58:18;101452.00;;;22.40
15607;BMP180;7865;50.918;4.510;2022-08-30T08:03:20;101454.00;;;22.60
15607;BMP180;7865;50.918;4.510;2022-08-30T08:08:21;101459.00;;;22.80
15607;BMP180;7865;50.918;4.510;2022-08-30T08:13:23;101466.00;;;23.00
15607;BMP180;7865;50.918;4.510;2022-08-30T08:18:28;101463.00;;;23.30
15607;BMP180;7865;50.918;4.510;2022-08-30T08:23:31;101464.00;;;23.70
15607;BMP180;7865;50.918;4.510;2022-08-30T08:28:33;101455.00;;;23.80
15607;BMP180;7865;50.918;4.510;2022-08-30T08:33:34;101457.00;;;24.20
15607;BMP180;7865;50.918;4.510;2022-08-30T08:38:35;101454.00;;;24.80
15607;BMP180;7865;50.918;4.510;2022-08-30T08:43:39;101457.00;;;25.50
15607;BMP180;7865;50.918;4.510;2022-08-30T08:48:45;101461.00;;;25.80
15607;BMP180;7865;50.918;4.510;2022-08-30T08:54:05;101456.00;;;25.70
15607;BMP180;7865;50.918;4.510;2022-08-30T08:59:09;101450.00;;;25.90
15607;BMP180;7865;50.918;4.510;2022-08-30T09:04:15;101452.00;;;26.10
15607;BMP180;7865;50.918;4.510;2022-08-30T09:09:28;101465.00;;;26.90
15607;BMP180;7865;50.918;4.510;2022-08-30T09:14:40;101458.00;;;27.30
15607;BMP180;7865;50.918;4.510;2022-08-30T09:24:58;101448.00;;;27.40
15607;BMP180;7865;50.918;4.510;2022-08-30T09:35:09;101443.00;;;27.70
15607;BMP180;7865;50.918;4.510;2022-08-30T09:40:19;101446.00;;;27.80
15607;BMP180;7865;50.918;4.510;2022-08-30T09:45:30;101452.00;;;27.30
15607;BMP180;7865;50.918;4.510;2022-08-30T09:50:34;101447.00;;;27.10
15607;BMP180;7865;50.918;4.510;2022-08-30T10:00:51;101441.00;;;27.80
15607;BMP180;7865;50.918;4.510;2022-08-30T10:11:44;101428.00;;;28.20
15607;BMP180;7865;50.918;4.510;2022-08-30T10:16:53;101431.00;;;28.70
15607;BMP180;7865;50.918;4.510;2022-08-30T10:22:15;101432.00;;;29.50
15607;BMP180;7865;50.918;4.510;2022-08-30T10:27:55;101430.00;;;29.60
15607;BMP180;7865;50.918;4.510;2022-08-30T10:33:07;101429.00;;;29.40
15607;BMP180;7865;50.918;4.510;2022-08-30T10:38:21;101431.00;;;29.10
15607;BMP180;7865;50.918;4.510;2022-08-30T10:48:36;101423.00;;;31.00
15607;BMP180;7865;50.918;4.510;2022-08-30T10:53:43;101410.00;;;30.90
15607;BMP180;7865;50.918;4.510;2022-08-30T10:58:46;101394.00;;;31.30
15607;BMP180;7865;50.918;4.510;2022-08-30T11:09:30;101406.00;;;30.70
15607;BMP180;7865;50.918;4.510;2022-08-30T11:14:42;101405.00;;;30.90
15607;BMP180;7865;50.918;4.510;2022-08-30T11:19:44;101404.00;;;30.80
15607;BMP180;7865;50.918;4.510;2022-08-30T11:35:48;101392.00;;;32.60
15607;BMP180;7865;50.918;4.510;2022-08-30T11:56:51;101388.00;;;31.50
15607;BMP180;7865;50.918;4.510;2022-08-30T12:01:55;101398.00;;;32.10
15607;BMP180;7865;50.918;4.510;2022-08-30T12:07:02;101383.00;;;31.90
15607;BMP180;7865;50.918;4.510;2022-08-30T12:22:40;101400.00;;;32.50
15607;BMP180;7865;50.918;4.510;2022-08-30T12:27:42;101389.00;;;32.50
15607;BMP180;7865;50.918;4.510;2022-08-30T12:32:45;101385.00;;;31.30
15607;BMP180;7865;50.918;4.510;2022-08-30T12:37:59;101373.00;;;32.50
15607;BMP180;7865;50.918;4.510;2022-08-30T12:43:04;101373.00;;;32.90
15607;BMP180;7865;50.918;4.510;2022-08-30T12:48:12;101373.00;;;33.70
15607;BMP180;7865;50.918;4.510;2022-08-30T12:53:34;101362.00;;;33.60
15607;BMP180;7865;50.918;4.510;2022-08-30T12:58:49;101364.00;;;33.00
15607;BMP180;7865;50.918;4.510;2022-08-30T13:04:01;101359.00;;;31.80
15607;BMP180;7865;50.918;4.510;2022-08-30T13:09:03;101343.00;;;31.70
15607;BMP180;7865;50.918;4.510;2022-08-30T13:14:37;101338.00;;;33.20
15607;BMP180;7865;50.918;4.510;2022-08-30T13:20:19;101346.00;;;34.30
15607;BMP180;7865;50.918;4.510;2022-08-30T13:25:07;101344.00;;;30.50
15607;BMP180;7865;50.918;4.510;2022-08-30T13:30:12;101340.00;;;30.40
15607;BMP180;7865;50.918;4.510;2022-08-30T13:35:15;101336.00;;;33.70
15607;BMP180;7865;50.918;4.510;2022-08-30T13:40:19;101324.00;;;34.20
15607;BMP180;7865;50.918;4.510;2022-08-30T13:45:21;101325.00;;;35.60
15607;BMP180;7865;50.918;4.510;2022-08-30T13:50:42;101323.00;;;35.80
15607;BMP180;7865;50.918;4.510;2022-08-30T13:55:44;101330.00;;;36.80
15607;BMP180;7865;50.918;4.510;2022-08-30T14:00:46;101321.00;;;36.70
15607;BMP180;7865;50.918;4.510;2022-08-30T14:05:47;101331.00;;;36.30
15607;BMP180;7865;50.918;4.510;2022-08-30T14:10:51;101318.00;;;36.90
15607;BMP180;7865;50.918;4.510;2022-08-30T14:15:53;101333.00;;;35.90
15607;BMP180;7865;50.918;4.510;2022-08-30T14:21:14;101334.00;;;30.80
15607;BMP180;7865;50.918;4.510;2022-08-30T14:26:21;101326.00;;;28.70
15607;BMP180;7865;50.918;4.510;2022-08-30T14:31:23;101307.00;;;28.60
15607;BMP180;7865;50.918;4.510;2022-08-30T14:36:25;101289.00;;;33.60
15607;BMP180;7865;50.918;4.510;2022-08-30T14:41:26;101295.00;;;35.60
15607;BMP180;7865;50.918;4.510;2022-08-30T14:46:28;101306.00;;;37.20
15607;BMP180;7865;50.918;4.510;2022-08-30T14:51:29;101319.00;;;36.50
15607;BMP180;7865;50.918;4.510;2022-08-30T14:56:30;101318.00;;;34.10
15607;BMP180;7865;50.918;4.510;2022-08-30T15:01:32;101317.00;;;32.40
15607;BMP180;7865;50.918;4.510;2022-08-30T15:06:39;101321.00;;;31.00
15607;BMP180;7865;50.918;4.510;2022-08-30T15:11:41;101326.00;;;30.70
15607;BMP180;7865;50.918;4.510;2022-08-30T15:16:44;101307.00;;;29.80
15607;BMP180;7865;50.918;4.510;2022-08-30T15:21:50;101304.00;;;29.30
15607;BMP180;7865;50.918;4.510;2022-08-30T15:26:52;101305.00;;;29.10
15607;BMP180;7865;50.918;4.510;2022-08-30T15:31:53;101301.00;;;28.80
15607;BMP180;7865;50.918;4.510;2022-08-30T15:36:55;101291.00;;;28.60
15607;BMP180;7865;50.918;4.510;2022-08-30T15:41:57;101288.00;;;28.70
15607;BMP180;7865;50.918;4.510;2022-08-30T15:47:02;101291.00;;;28.60
15607;BMP180;7865;50.918;4.510;2022-08-30T15:52:04;101278.00;;;28.40
15607;BMP180;7865;50.918;4.510;2022-08-30T15:57:07;101279.00;;;27.90
15607;BMP180;7865;50.918;4.510;2022-08-30T16:02:09;101285.00;;;27.60
15607;BMP180;7865;50.918;4.510;2022-08-30T16:07:11;101284.00;;;27.60
15607;BMP180;7865;50.918;4.510;2022-08-30T16:12:12;101281.00;;;27.50
15607;BMP180;7865;50.918;4.510;2022-08-30T16:17:24;101286.00;;;27.30
15607;BMP180;7865;50.918;4.510;2022-08-30T16:22:26;101280.00;;;27.30
15607;BMP180;7865;50.918;4.510;2022-08-30T16:27:27;101279.00;;;27.10
15607;BMP180;7865;50.918;4.510;2022-08-30T16:32:29;101288.00;;;26.80
15607;BMP180;7865;50.918;4.510;2022-08-30T16:37:30;101282.00;;;26.40
15607;BMP180;7865;50.918;4.510;2022-08-30T16:42:32;101291.00;;;26.20
15607;BMP180;7865;50.918;4.510;2022-08-30T16:47:34;101298.00;;;26.10
15607;BMP180;7865;50.918;4.510;2022-08-30T16:52:35;101299.00;;;26.00
15607;BMP180;7865;50.918;4.510;2022-08-30T16:57:37;101295.00;;;25.80
15607;BMP180;7865;50.918;4.510;2022-08-30T17:02:40;101295.00;;;25.60
15607;BMP180;7865;50.918;4.510;2022-08-30T17:07:54;101291.00;;;25.50
15607;BMP180;7865;50.918;4.510;2022-08-30T17:12:56;101295.00;;;25.40
15607;BMP180;7865;50.918;4.510;2022-08-30T17:17:57;101302.00;;;25.30
15607;BMP180;7865;50.918;4.510;2022-08-30T17:22:59;101303.00;;;25.00
15607;BMP180;7865;50.918;4.510;2022-08-30T17:28:04;101311.00;;;24.80
15607;BMP180;7865;50.918;4.510;2022-08-30T17:33:06;101317.00;;;24.70
15607;BMP180;7865;50.918;4.510;2022-08-30T17:38:08;101315.00;;;24.60
15607;BMP180;7865;50.918;4.510;2022-08-30T17:43:12;101334.00;;;24.50
15607;BMP180;7865;50.918;4.510;2022-08-30T17:48:13;101333.00;;;24.40
15607;BMP180;7865;50.918;4.510;2022-08-30T17:53:16;101338.00;;;24.20
15607;BMP180;7865;50.918;4.510;2022-08-30T17:58:17;101340.00;;;24.00
15607;BMP180;7865;50.918;4.510;2022-08-30T18:03:22;101341.00;;;23.70
15607;BMP180;7865;50.918;4.510;2022-08-30T18:08:24;101343.00;;;23.50
15607;BMP180;7865;50.918;4.510;2022-08-30T18:13:26;101363.00;;;23.30
15607;BMP180;7865;50.918;4.510;2022-08-30T18:18:28;101368.00;;;23.10
15607;BMP180;7865;50.918;4.510;2022-08-30T18:23:31;101377.00;;;22.90
15607;BMP180;7865;50.918;4.510;2022-08-30T18:28:33;101379.00;;;22.70
15607;BMP180;7865;50.918;4.510;2022-08-30T18:33:34;101388.00;;;22.60
15607;BMP180;7865;50.918;4.510;2022-08-30T18:38:36;101382.00;;;22.40
15607;BMP180;7865;50.918;4.510;2022-08-30T18:43:39;101394.00;;;22.30
15607;BMP180;7865;50.918;4.510;2022-08-30T18:48:42;101395.00;;;22.20
15607;BMP180;7865;50.918;4.510;2022-08-30T18:53:45;101401.00;;;22.00
15607;BMP180;7865;50.918;4.510;2022-08-30T18:58:47;101405.00;;;21.90
15607;BMP180;7865;50.918;4.510;2022-08-30T19:03:54;101409.00;;;21.80
15607;BMP180;7865;50.918;4.510;2022-08-30T19:09:03;101423.00;;;21.70
15607;BMP180;7865;50.918;4.510;2022-08-30T19:14:10;101428.00;;;21.60
15607;BMP180;7865;50.918;4.510;2022-08-30T19:19:14;101426.00;;;21.60
15607;BMP180;7865;50.918;4.510;2022-08-30T19:24:15;101424.00;;;21.40
15607;BMP180;7865;50.918;4.510;2022-08-30T19:29:19;101434.00;;;21.30
15607;BMP180;7865;50.918;4.510;2022-08-30T19:34:20;101440.00;;;21.20
15607;BMP180;7865;50.918;4.510;2022-08-30T19:39:22;101442.00;;;21.00
15607;BMP180;7865;50.918;4.510;2022-08-30T19:44:24;101442.00;;;20.80
15607;BMP180;7865;50.918;4.510;2022-08-30T19:49:25;101442.00;;;20.70
15607;BMP180;7865;50.918;4.510;2022-08-30T19:54:27;101452.00;;;20.50
15607;BMP180;7865;50.918;4.510;2022-08-30T19:59:28;101448.00;;;20.40
15607;BMP180;7865;50.918;4.510;2022-08-30T20:04:30;101458.00;;;20.20
15607;BMP180;7865;50.918;4.510;2022-08-30T20:09:33;101447.00;;;20.10
15607;BMP180;7865;50.918;4.510;2022-08-30T20:14:34;101463.00;;;20.00
15607;BMP180;7865;50.918;4.510;2022-08-30T20:19:39;101463.00;;;19.90
15607;BMP180;7865;50.918;4.510;2022-08-30T20:24:40;101465.00;;;19.80
15607;BMP180;7865;50.918;4.510;2022-08-30T20:29:44;101464.00;;;19.70
15607;BMP180;7865;50.918;4.510;2022-08-30T20:34:47;101463.00;;;19.70
15607;BMP180;7865;50.918;4.510;2022-08-30T20:39:49;101458.00;;;19.60
15607;BMP180;7865;50.918;4.510;2022-08-30T20:44:51;101466.00;;;19.60
15607;BMP180;7865;50.918;4.510;2022-08-30T20:49:53;101464.00;;;19.50
15607;BMP180;7865;50.918;4.510;2022-08-30T20:54:54;101470.00;;;19.40
15607;BMP180;7865;50.918;4.510;2022-08-30T20:59:59;101471.00;;;19.30
15607;BMP180;7865;50.918;4.510;2022-08-30T21:05:02;101472.00;;;19.30
15607;BMP180;7865;50.918;4.510;2022-08-30T21:10:04;101473.00;;;19.30
15607;BMP180;7865;50.918;4.510;2022-08-30T21:15:09;101468.00;;;19.30
15607;BMP180;7865;50.918;4.510;2022-08-30T21:20:30;101471.00;;;19.30
15607;BMP180;7865;50.918;4.510;2022-08-30T21:25:35;101473.00;;;19.20
15607;BMP180;7865;50.918;4.510;2022-08-30T21:30:37;101460.00;;;19.10
15607;BMP180;7865;50.918;4.510;2022-08-30T21:35:39;101466.00;;;19.10
15607;BMP180;7865;50.918;4.510;2022-08-30T21:40:58;101469.00;;;19.00
15607;BMP180;7865;50.918;4.510;2022-08-30T21:46:04;101476.00;;;18.90
15607;BMP180;7865;50.918;4.510;2022-08-30T21:51:08;101478.00;;;18.80
15607;BMP180;7865;50.918;4.510;2022-08-30T21:56:15;101481.00;;;18.70
15607;BMP180;7865;50.918;4.510;2022-08-30T22:01:24;101479.00;;;18.60
15607;BMP180;7865;50.918;4.510;2022-08-30T22:06:27;101479.00;;;18.60
15607;BMP180;7865;50.918;4.510;2022-08-30T22:11:32;101494.00;;;18.50
15607;BMP180;7865;50.918;4.510;2022-08-30T22:16:35;101484.00;;;18.40
15607;BMP180;7865;50.918;4.510;2022-08-30T22:21:38;101490.00;;;18.30
15607;BMP180;7865;50.918;4.510;2022-08-30T22:26:43;101488.00;;;18.20
15607;BMP180;7865;50.918;4.510;2022-08-30T22:31:45;101486.00;;;18.00
15607;BMP180;7865;50.918;4.510;2022-08-30T22:36:46;101482.00;;;18.00
15607;BMP180;7865;50.918;4.510;2022-08-30T22:41:48;101485.00;;;17.90
15607;BMP180;7865;50.918;4.510;2022-08-30T22:46:50;101480.00;;;17.80
15607;BMP180;7865;50.918;4.510;2022-08-30T22:51:51;101485.00;;;17.70
15607;BMP180;7865;50.918;4.510;2022-08-30T22:56:53;101476.00;;;17.70
15607;BMP180;7865;50.918;4.510;2022-08-30T23:01:54;101480.00;;;17.60
15607;BMP180;7865;50.918;4.510;2022-08-30T23:06:56;101484.00;;;17.60
15607;BMP180;7865;50.918;4.510;2022-08-30T23:11:58;101484.00;;;17.50
15607;BMP180;7865;50.918;4.510;2022-08-30T23:16:59;101479.00;;;17.40
15607;BMP180;7865;50.918;4.510;2022-08-30T23:22:00;101486.00;;;17.30
15607;BMP180;7865;50.918;4.510;2022-08-30T23:27:02;101484.00;;;17.30
15607;BMP180;7865;50.918;4.510;2022-08-30T23:32:22;101484.00;;;17.20
15607;BMP180;7865;50.918;4.510;2022-08-30T23:37:41;101484.00;;;17.10
15607;BMP180;7865;50.918;4.510;2022-08-30T23:43:01;101489.00;;;17.10
15607;BMP180;7865;50.918;4.510;2022-08-30T23:48:21;101486.00;;;17.00
15607;BMP180;7865;50.918;4.510;2022-08-30T23:53:51;101479.00;;;17.00
15607;BMP180;7865;50.918;4.510;2022-08-30T23:59:11;101487.00;;;17.00
